Etusivu
METAR-TAF:

METAR-TAF

Lentoasemat :

Yapin kansainvälinen lentoasema

Yap, Mikronesia

Leveyspiiri: 09-29N, Pituuspiiri: 138-05E, korkeus merenpinnasta: 28 m

Tämänhetkinen sää

Tämä raportti tehtiin 1 tunti ja 59 minuuttia sitten, kello 06.50 UTC
Tuuli 10 kn idästä/koillisesta
Lämpötila 31°C
Kosteus 66%
Ilmanpaine 1009 hPa
Näkyvyys: 19.3 km
Muutamia pilviä 1800 ft:n korkeudessa
Hajonneita pilviä 30000 ft:n korkeudessa

METAR: PTYA 240650Z 07010KT 12SM FEW018 BKN300 31/24 A2981 RMK SLP095 T03130244

Aika: 18:49 (08:49 UTC)

Sääennuste

Tämä raportti tehtiin 3 tuntia ja 22 minuuttia sitten, kello 05.27 UTC
Ennuste voimassa 24. päivästä klo 06 UTC - 25. päivään klo 06 UTC
Tuuli 10 kn idästä
Näkyvyys: 10 km
Hajanaisia pilviä 1800 ft:n korkeudessa

TAF: PTYA 240527Z 2406/2506 08010KT P6SM SCT018

Säähavainnot ja -ennusteet yli 4000 lentoasemalta (METAR- ja TAF-raportit).

Käytössä olevat sääasemat on merkitty karttaan keltaisilla ja punaisilla pisteillä.

Aseta hiiri pisteen päälle nähdäksesi sääaseman nimen.

Klikkaa sitten nähdäksesi säähavainnot ja -ennusteet.

Kartan vaihtaminen: klikkaa mustalla rastilla varustettuja vihreitä pisteitä, niin voit zoomata sisään; viivalla varustettua vihreää pistettä, niin voit zoomata ulos tai vihreitä nuolia, niin pääset viereisille kartoille.


METAR-TAF: